Itarana, Brazil
Current Conditions -  °F | °C
As of 11:00 AM on Thursday 23 Oct 2014 (Local Time) from SBVT Reporting Station
Broken Clouds Broken Clouds  
Wind Chill: 77°   Ceiling: 7000
Heat Index: 79°   Visibility: 6mi
Dew Point: 57°   Wind: 8mph
Humidity: 50%   Direction: 170°S
Pressure: 30.18"   Gusts: NA
Location:  19.87°S, 40.88°W
Report Text: SBVT 231300Z 17007KT 9999 FEW030 SCT050 BKN070 25/14 Q1022
Loading
Personal Weather Stations






























Interactive Weather Map
Tropical Storm Tracking
New forecast layout! Learn more

10-Day Weather Forecast

Advertisements
Track Severe Weather on mobile